Time;durP1;ratioP1;P1;durP2;ratioP2;P2;SDS_P1;SDS_P2;PMS_P1;PMS_P2;Temp;Humidity;BMP_temperature;BMP_pressure;BME280_temperature;BME280_humidity;BME280_pressure;Samples;Min_cycle;Max_cycle;Signal;HPM_P1;HPM_P2
2023/09/11 00:01:16;;;;;;;9.27;8.37;;;16.50;76.50;;;;;;5024371;28;20475;-51
2023/09/11 00:03:43;;;;;;;9.43;8.57;;;16.50;76.30;;;;;;5005264;28;20546;-53
2023/09/11 00:06:10;;;;;;;10.40;8.87;;;16.40;75.10;;;;;;5019570;28;20497;-53
2023/09/11 00:08:37;;;;;;;10.20;9.10;;;16.30;74.10;;;;;;5010410;28;20456;-53
2023/09/11 00:11:04;;;;;;;8.10;7.30;;;16.20;72.20;;;;;;5018745;28;20523;-54
2023/09/11 00:13:31;;;;;;;9.43;8.50;;;16.30;68.10;;;;;;5017181;28;20634;-53
2023/09/11 00:15:58;;;;;;;10.97;8.93;;;16.30;73.10;;;;;;5013271;28;20514;-53
2023/09/11 00:18:24;;;;;;;9.87;8.87;;;16.20;69.30;;;;;;5007042;28;20538;-51
2023/09/11 00:20:51;;;;;;;9.03;8.13;;;16.10;66.90;;;;;;5008992;28;20936;-53
2023/09/11 00:23:19;;;;;;;10.67;8.10;;;16.10;60.40;;;;;;5012732;28;20495;-52
2023/09/11 00:25:45;;;;;;;9.27;8.37;;;16.20;60.70;;;;;;5010205;28;20917;-53
2023/09/11 00:28:12;;;;;;;10.57;7.90;;;16.20;64.00;;;;;;5008998;28;20546;-52
2023/09/11 00:30:39;;;;;;;9.30;8.20;;;16.20;64.60;;;;;;5021248;28;20587;-52
2023/09/11 00:33:06;;;;;;;11.53;8.53;;;16.10;61.00;;;;;;5009106;28;20492;-52
2023/09/11 00:35:32;;;;;;;9.60;7.90;;;16.20;61.20;;;;;;5009733;28;20495;-52
2023/09/11 00:37:59;;;;;;;9.37;8.23;;;16.10;61.80;;;;;;5008105;28;20558;-52
2023/09/11 00:40:27;;;;;;;11.33;7.90;;;16.10;54.90;;;;;;5018318;28;20463;-54
2023/09/11 00:42:53;;;;;;;10.83;7.60;;;16.00;55.40;;;;;;5011226;28;20995;-51
2023/09/11 00:45:20;;;;;;;9.07;8.23;;;15.90;50.80;;;;;;5011367;28;21008;-52
2023/09/11 00:47:47;;;;;;;9.20;8.30;;;16.00;47.60;;;;;;5015185;28;20547;-53
2023/09/11 00:50:16;;;;;;;12.57;8.33;;;15.90;54.10;;;;;;5012999;28;20561;-52
2023/09/11 00:52:44;;;;;;;9.20;8.30;;;15.90;54.80;;;;;;5008215;28;20550;-53
2023/09/11 00:55:10;;;;;;;9.30;8.40;;;15.90;53.30;;;;;;5020866;28;20490;-51
2023/09/11 00:57:38;;;;;;;9.60;8.20;;;15.90;55.30;;;;;;5018331;28;20503;-52
2023/09/11 01:00:06;;;;;;;8.53;7.73;;;15.80;56.70;;;;;;5024116;28;20502;-52
2023/09/11 01:02:33;;;;;;;9.43;8.40;;;15.90;52.70;;;;;;5020293;28;20467;-51
2023/09/11 01:05:01;;;;;;;11.80;8.67;;;15.90;55.20;;;;;;5028518;28;20499;-53
2023/09/11 01:07:27;;;;;;;9.40;8.53;;;15.80;53.90;;;;;;5009729;28;20463;-53
2023/09/11 01:09:54;;;;;;;14.10;9.70;;;15.80;48.20;;;;;;5012635;28;20558;-53
2023/09/11 01:12:21;;;;;;;10.83;9.73;;;15.80;45.10;;;;;;5006954;28;20510;-53
2023/09/11 01:14:48;;;;;;;15.33;9.43;;;15.80;39.90;;;;;;5009953;28;21032;-52
2023/09/11 01:17:25;;;;;;;11.27;10.03;;;15.80;44.10;;;;;;5010916;28;20937;-52
2023/09/11 01:20:29;;;;;;;12.10;9.80;;;15.70;41.10;;;;;;5011495;28;20459;-53
2023/09/11 01:23:23;;;;;;;12.20;10.10;;;15.70;44.00;;;;;;4976537;28;20562;-52
2023/09/11 01:26:06;;;;;;;13.57;10.20;;;15.70;44.40;;;;;;5015535;28;20554;-52
2023/09/11 01:28:57;;;;;;;10.40;9.40;;;15.70;43.40;;;;;;5006736;28;20557;-54
2023/09/11 01:31:24;;;;;;;11.73;9.87;;;15.60;45.70;;;;;;5012240;28;20570;-52
2023/09/11 01:33:53;;;;;;;9.47;8.50;;;15.70;44.10;;;;;;5009284;28;20471;-52
2023/09/11 01:36:20;;;;;;;12.10;9.90;;;15.60;39.80;;;;;;5007872;28;20587;-52
2023/09/11 01:38:46;;;;;;;11.67;10.47;;;15.60;44.00;;;;;;5008717;28;20500;-53
2023/09/11 01:41:16;;;;;;;17.03;10.13;;;15.60;40.40;;;;;;5009214;28;20483;-53
2023/09/11 01:43:46;;;;;;;12.37;9.60;;;15.50;35.90;;;;;;5007842;28;20635;-53
2023/09/11 01:46:18;;;;;;;17.13;10.23;;;15.50;39.20;;;;;;5009392;28;20555;-52
2023/09/11 01:48:46;;;;;;;12.03;10.50;;;15.50;39.30;;;;;;5008276;28;20494;-54
2023/09/11 01:51:14;;;;;;;11.33;9.87;;;15.50;35.10;;;;;;5006269;28;20574;-52
2023/09/11 01:53:41;;;;;;;13.00;9.43;;;15.50;38.90;;;;;;5006182;28;20544;-53
2023/09/11 01:56:08;;;;;;;10.30;9.23;;;15.50;40.30;;;;;;5009075;28;20495;-54
2023/09/11 01:58:35;;;;;;;17.70;10.53;;;15.40;37.50;;;;;;5009755;28;20555;-52
2023/09/11 02:01:02;;;;;;;11.57;10.40;;;15.50;37.30;;;;;;5003112;28;20518;-54
2023/09/11 02:03:30;;;;;;;13.23;10.17;;;15.40;33.00;;;;;;5011156;28;20559;-54
2023/09/11 02:05:56;;;;;;;10.87;9.83;;;15.50;35.60;;;;;;5008623;28;20550;-55
2023/09/11 02:08:23;;;;;;;12.07;10.83;;;15.40;38.70;;;;;;5003303;28;20487;-52
2023/09/11 02:10:49;;;;;;;11.87;10.67;;;15.40;37.60;;;;;;5002864;28;20594;-52
2023/09/11 02:13:16;;;;;;;14.27;10.10;;;15.30;37.90;;;;;;5005775;28;21095;-54
2023/09/11 02:15:42;;;;;;;11.80;10.67;;;15.30;39.50;;;;;;5005879;28;20919;-52
2023/09/11 02:18:09;;;;;;;12.33;11.03;;;15.20;37.80;;;;;;5002692;28;20886;-52
2023/09/11 02:20:37;;;;;;;17.30;9.87;;;15.10;37.50;;;;;;5011535;28;20482;-52
2023/09/11 02:23:04;;;;;;;11.50;10.03;;;15.20;33.50;;;;;;5014520;28;20467;-52
2023/09/11 02:25:31;;;;;;;11.07;9.97;;;15.20;36.40;;;;;;5010935;28;20564;-52
2023/09/11 02:27:57;;;;;;;24.07;11.70;;;15.20;32.90;;;;;;5019339;28;20542;-53
2023/09/11 02:30:24;;;;;;;12.37;11.33;;;15.10;30.00;;;;;;5021017;28;20518;-52
2023/09/11 02:32:50;;;;;;;11.60;10.50;;;15.20;33.50;;;;;;5017005;28;20511;-53
2023/09/11 02:35:17;;;;;;;11.47;10.40;;;15.20;32.20;;;;;;5014768;28;20464;-53
2023/09/11 02:37:45;;;;;;;20.93;10.70;;;15.10;31.50;;;;;;5012038;28;20487;-53
2023/09/11 02:40:11;;;;;;;14.80;10.90;;;15.00;27.90;;;;;;5004429;28;20518;-52
2023/09/11 02:42:38;;;;;;;11.83;10.73;;;15.10;28.50;;;;;;5014276;28;20888;-53
2023/09/11 02:45:05;;;;;;;12.67;11.40;;;15.10;30.30;;;;;;5024753;28;20558;-52
2023/09/11 02:47:32;;;;;;;12.43;10.33;;;15.00;27.70;;;;;;5010831;28;20550;-51
2023/09/11 02:49:58;;;;;;;15.53;11.40;;;15.00;28.20;;;;;;5022120;28;20486;-53
2023/09/11 02:52:25;;;;;;;16.10;11.90;;;15.00;29.80;;;;;;5025345;28;20575;-53
2023/09/11 02:54:53;;;;;;;10.90;9.90;;;15.00;30.60;;;;;;5013809;28;20467;-52
2023/09/11 02:57:20;;;;;;;11.40;10.20;;;15.00;34.40;;;;;;5010896;28;21050;-52
2023/09/11 02:59:47;;;;;;;15.20;10.27;;;14.90;33.90;;;;;;5012029;28;20622;-53
2023/09/11 03:02:13;;;;;;;11.20;10.17;;;14.90;31.20;;;;;;5010603;28;20905;-53
2023/09/11 03:04:40;;;;;;;13.47;10.43;;;14.90;34.20;;;;;;5012691;28;20476;-52
2023/09/11 03:07:06;;;;;;;10.53;9.60;;;14.90;32.40;;;;;;5016931;28;20464;-53
2023/09/11 03:09:33;;;;;;;11.50;10.50;;;14.80;32.80;;;;;;5009401;28;20491;-53
2023/09/11 03:12:01;;;;;;;15.57;10.77;;;14.90;34.50;;;;;;5008990;28;20529;-52
2023/09/11 03:14:27;;;;;;;11.90;10.80;;;14.90;34.10;;;;;;5019283;28;21078;-51
2023/09/11 03:16:54;;;;;;;14.17;10.63;;;14.90;31.70;;;;;;5021052;28;20495;-52
2023/09/11 03:19:20;;;;;;;11.20;10.23;;;14.90;31.90;;;;;;5024141;28;20549;-54
2023/09/11 03:21:47;;;;;;;12.10;10.80;;;14.80;33.90;;;;;;5022618;28;20546;-53
2023/09/11 03:24:13;;;;;;;12.03;10.33;;;14.80;29.30;;;;;;5010218;28;20945;-53
2023/09/11 03:26:40;;;;;;;11.90;10.67;;;14.80;27.80;;;;;;5008880;28;20551;-52
2023/09/11 03:29:08;;;;;;;15.30;10.90;;;14.80;28.30;;;;;;5007547;28;20578;-51
2023/09/11 03:31:34;;;;;;;12.20;11.10;;;14.70;27.10;;;;;;5006406;28;20494;-52
2023/09/11 03:34:01;;;;;;;11.83;10.70;;;14.60;26.30;;;;;;5009906;28;20883;-54
2023/09/11 03:36:27;;;;;;;11.23;10.30;;;14.60;22.40;;;;;;5008814;28;20538;-52
2023/09/11 03:38:54;;;;;;;13.10;10.57;;;14.60;21.40;;;;;;5011100;28;20539;-54
2023/09/11 03:41:21;;;;;;;11.53;10.37;;;14.50;25.60;;;;;;5013122;28;20491;-52
2023/09/11 03:43:47;;;;;;;14.63;12.07;;;14.60;25.80;;;;;;5009190;28;20473;-53
2023/09/11 03:46:15;;;;;;;12.00;10.87;;;14.60;21.60;;;;;;5012424;28;20548;-52
2023/09/11 03:48:42;;;;;;;10.27;9.43;;;14.60;26.50;;;;;;5005933;28;20550;-53
2023/09/11 03:51:09;;;;;;;11.93;10.73;;;14.70;28.10;;;;;;5014438;28;20987;-54
2023/09/11 03:53:42;;;;;;;11.83;10.63;;;14.70;30.70;;;;;;5018733;28;20904;-53
2023/09/11 03:56:09;;;;;;;12.63;10.23;;;14.70;33.30;;;;;;5015466;28;20506;-52
2023/09/11 03:58:35;;;;;;;17.77;10.50;;;14.60;28.60;;;;;;5021291;28;20498;-53
2023/09/11 04:01:02;;;;;;;11.63;10.63;;;14.60;25.70;;;;;;5014001;28;20475;-51
2023/09/11 04:03:30;;;;;;;14.53;11.60;;;14.50;24.90;;;;;;5012931;28;20811;-52
2023/09/11 04:05:56;;;;;;;11.50;10.50;;;14.60;25.30;;;;;;5011271;28;20578;-53
2023/09/11 04:08:23;;;;;;;12.07;10.97;;;14.50;24.90;;;;;;5011664;28;20510;-51
2023/09/11 04:10:49;;;;;;;12.03;11.03;;;14.40;28.90;;;;;;5018793;28;20490;-51
2023/09/11 04:13:16;;;;;;;12.67;11.00;;;14.50;26.30;;;;;;5023081;28;20543;-52
2023/09/11 04:15:44;;;;;;;11.70;9.90;;;14.40;27.60;;;;;;5015483;28;21048;-53
2023/09/11 04:18:11;;;;;;;11.10;10.00;;;14.40;27.20;;;;;;5008709;28;20552;-53
2023/09/11 04:20:39;;;;;;;12.43;10.60;;;14.40;22.40;;;;;;5019575;28;20569;-53
2023/09/11 04:23:05;;;;;;;12.23;11.03;;;14.40;24.70;;;;;;5009444;28;22046;-54
2023/09/11 04:25:33;;;;;;;13.43;10.73;;;14.40;29.70;;;;;;5015855;28;20493;-53
2023/09/11 04:27:59;;;;;;;11.50;10.30;;;14.40;29.40;;;;;;5016151;28;20459;-53
2023/09/11 04:30:26;;;;;;;13.97;10.53;;;14.40;26.50;;;;;;5013352;28;20507;-53
2023/09/11 04:32:52;;;;;;;12.00;10.90;;;14.40;24.90;;;;;;5012760;28;20578;-52
2023/09/11 04:35:20;;;;;;;13.27;10.47;;;14.40;26.20;;;;;;5020230;28;22134;-52
2023/09/11 04:37:47;;;;;;;13.40;10.87;;;14.30;29.30;;;;;;5014687;28;20495;-52
2023/09/11 04:40:14;;;;;;;12.23;11.13;;;14.30;28.10;;;;;;5011951;28;20947;-52
2023/09/11 04:42:43;;;;;;;11.93;10.73;;;14.40;25.10;;;;;;5010800;28;20554;-51
2023/09/11 04:45:10;;;;;;;12.20;10.97;;;14.40;30.90;;;;;;5011425;28;20470;-54
2023/09/11 04:47:37;;;;;;;12.40;11.20;;;14.30;28.90;;;;;;5012420;28;20539;-53
2023/09/11 04:50:04;;;;;;;12.50;10.73;;;14.40;27.70;;;;;;5018596;28;20590;-53
2023/09/11 04:52:30;;;;;;;11.03;10.03;;;14.30;27.70;;;;;;5009408;28;20488;-53
2023/09/11 04:54:59;;;;;;;10.87;9.90;;;14.30;22.80;;;;;;5009374;28;20555;-53
2023/09/11 04:57:25;;;;;;;14.63;10.87;;;14.30;22.50;;;;;;5007676;28;21012;-52
2023/09/11 04:59:52;;;;;;;11.80;10.80;;;14.30;71.60;;;;;;5006250;28;20621;-53
2023/09/11 05:02:19;;;;;;;12.77;11.30;;;14.30;87.50;;;;;;5009945;28;20538;-52
2023/09/11 05:04:46;;;;;;;12.07;10.77;;;14.30;20.10;;;;;;5010149;28;20499;-53
2023/09/11 05:07:13;;;;;;;13.10;10.67;;;14.40;20.70;;;;;;5014322;28;20508;-52
2023/09/11 05:09:39;;;;;;;13.80;12.33;;;14.40;20.60;;;;;;5013976;28;22355;-52
2023/09/11 05:12:08;;;;;;;16.73;12.03;;;14.40;21.30;;;;;;5013099;28;20576;-51
2023/09/11 05:14:34;;;;;;;14.43;10.83;;;14.40;73.30;;;;;;5009551;28;20463;-51
2023/09/11 05:17:01;;;;;;;12.60;11.50;;;14.40;20.50;;;;;;5018871;28;20559;-52
2023/09/11 05:19:27;;;;;;;12.00;10.90;;;14.50;74.00;;;;;;5013112;28;20499;-53
2023/09/11 05:21:54;;;;;;;13.93;11.20;;;14.50;75.40;;;;;;5012264;28;20508;-51
2023/09/11 05:24:20;;;;;;;13.93;12.00;;;14.50;71.90;;;;;;5016843;28;20549;-51
2023/09/11 05:26:47;;;;;;;13.27;11.80;;;14.60;79.20;;;;;;5015839;28;20547;-51
2023/09/11 05:29:15;;;;;;;10.80;9.90;;;14.60;94.70;;;;;;5008494;28;20544;-51
2023/09/11 05:31:41;;;;;;;17.63;12.00;;;14.70;82.80;;;;;;5010719;28;20575;-53
2023/09/11 05:34:08;;;;;;;13.87;11.50;;;14.80;79.00;;;;;;5011689;28;20488;-51
2023/09/11 05:36:34;;;;;;;13.33;12.00;;;14.80;75.30;;;;;;5007624;28;20547;-52
2023/09/11 05:39:01;;;;;;;11.90;10.80;;;14.80;75.80;;;;;;5012518;28;20553;-51
2023/09/11 05:41:27;;;;;;;13.33;11.30;;;14.90;80.20;;;;;;5004996;28;20526;-52
2023/09/11 05:43:54;;;;;;;18.60;11.93;;;15.00;75.50;;;;;;5015818;28;20474;-51
2023/09/11 05:46:22;;;;;;;13.97;11.10;;;15.00;81.50;;;;;;5013428;28;20580;-52
2023/09/11 05:48:49;;;;;;;12.53;10.90;;;15.00;83.50;;;;;;5018365;28;21218;-52
2023/09/11 05:51:16;;;;;;;12.27;11.17;;;15.10;86.00;;;;;;5005300;28;20492;-54
2023/09/11 05:53:42;;;;;;;20.20;12.23;;;15.10;84.30;;;;;;5010478;28;20552;-53
2023/09/11 05:56:09;;;;;;;13.50;11.23;;;15.20;81.20;;;;;;5010143;28;20555;-53
2023/09/11 05:58:35;;;;;;;11.33;10.33;;;15.30;85.50;;;;;;5020659;28;20495;-54
2023/09/11 06:01:03;;;;;;;12.30;11.03;;;15.40;93.90;;;;;;5006194;28;20507;-53
2023/09/11 06:03:31;;;;;;;15.17;10.67;;;15.40;89.50;;;;;;4996899;28;20467;-53
2023/09/11 06:05:59;;;;;;;15.10;13.23;;;15.50;94.10;;;;;;4993840;28;20471;-54
2023/09/11 06:08:26;;;;;;;15.73;11.33;;;15.60;89.20;;;;;;5009847;28;20452;-55
2023/09/11 06:10:53;;;;;;;11.47;10.37;;;15.70;81.50;;;;;;5007776;28;20571;-54
2023/09/11 06:13:19;;;;;;;14.20;12.80;;;15.80;21.00;;;;;;5014177;28;20483;-55
2023/09/11 06:15:46;;;;;;;14.50;12.53;;;15.90;20.80;;;;;;5003748;28;20562;-53
2023/09/11 06:18:12;;;;;;;13.80;12.27;;;16.00;20.60;;;;;;5008129;28;20502;-54
2023/09/11 06:20:40;;;;;;;13.50;12.17;;;16.00;22.90;;;;;;5008468;28;20938;-54
2023/09/11 06:23:08;;;;;;;14.27;12.87;;;16.10;23.20;;;;;;5006726;28;20452;-52
2023/09/11 06:25:34;;;;;;;12.33;11.03;;;16.20;23.70;;;;;;5011985;28;20474;-52
2023/09/11 06:28:01;;;;;;;15.60;11.60;;;16.30;23.80;;;;;;5015765;28;20551;-53
2023/09/11 06:30:28;;;;;;;22.03;12.23;;;16.40;23.20;;;;;;5017491;28;20482;-53
2023/09/11 06:32:54;;;;;;;14.70;13.20;;;16.50;23.30;;;;;;5008819;28;20519;-51
2023/09/11 06:35:21;;;;;;;15.67;13.50;;;16.60;23.60;;;;;;5012541;28;20550;-54
2023/09/11 06:37:49;;;;;;;14.47;12.47;;;16.70;23.70;;;;;;5006879;28;20564;-54
2023/09/11 06:40:16;;;;;;;14.30;12.90;;;16.80;23.50;;;;;;5007699;28;20519;-53
2023/09/11 06:42:42;;;;;;;15.03;13.53;;;17.00;23.70;;;;;;5007242;28;20969;-53
2023/09/11 06:45:10;;;;;;;20.77;13.70;;;17.10;24.60;;;;;;5013919;28;20547;-51
2023/09/11 06:47:37;;;;;;;18.50;14.40;;;17.20;24.60;;;;;;5014532;28;20494;-54
2023/09/11 06:50:04;;;;;;;25.50;14.50;;;17.40;24.50;;;;;;5007718;28;20531;-53
2023/09/11 06:52:32;;;;;;;23.63;15.97;;;17.60;24.20;;;;;;5006889;28;20523;-52
2023/09/11 06:55:00;;;;;;;18.10;15.67;;;17.80;24.70;;;;;;5011960;28;20468;-52
2023/09/11 06:57:26;;;;;;;23.07;15.80;;;18.00;31.10;;;;;;5010907;28;20546;-53
2023/09/11 06:59:53;;;;;;;17.67;14.63;;;18.20;35.40;;;;;;5006132;28;20459;-52
2023/09/11 07:02:20;;;;;;;19.27;15.50;;;18.40;40.50;;;;;;5018536;28;20965;-52
2023/09/11 07:04:46;;;;;;;17.03;14.90;;;18.60;43.80;;;;;;5010538;28;20492;-52
2023/09/11 07:07:13;;;;;;;18.83;15.23;;;18.70;47.20;;;;;;5003948;28;20547;-53
2023/09/11 07:09:40;;;;;;;25.70;16.07;;;18.80;50.10;;;;;;5010174;28;20487;-53
2023/09/11 07:12:08;;;;;;;20.90;15.77;;;19.00;56.60;;;;;;5010870;28;20586;-52
2023/09/11 07:14:34;;;;;;;18.53;14.73;;;19.10;60.60;;;;;;5011785;28;20531;-51
2023/09/11 07:17:03;;;;;;;20.67;15.03;;;19.30;67.00;;;;;;5011233;28;20531;-52
2023/09/11 07:19:29;;;;;;;15.90;14.30;;;19.40;73.20;;;;;;5013140;28;20448;-53
2023/09/11 07:21:56;;;;;;;18.03;13.73;;;19.70;78.10;;;;;;5009003;28;21035;-51
2023/09/11 07:24:22;;;;;;;20.40;13.80;;;19.90;82.50;;;;;;5014652;28;20551;-52
2023/09/11 07:26:49;;;;;;;15.33;13.73;;;20.00;87.20;;;;;;5007391;28;20502;-52
2023/09/11 07:29:17;;;;;;;15.33;12.97;;;20.10;92.80;;;;;;5012448;28;20483;-53
2023/09/11 07:31:43;;;;;;;17.53;12.07;;;20.20;95.70;;;;;;5015074;28;20467;-57
2023/09/11 07:34:10;;;;;;;21.00;12.93;;;20.40;99.90;;;;;;5013714;28;20495;-53
2023/09/11 07:36:36;;;;;;;14.00;12.50;;;20.50;99.90;;;;;;5014621;28;20517;-53
2023/09/11 07:39:03;;;;;;;20.50;12.30;;;20.70;99.90;;;;;;5006710;28;20563;-51
2023/09/11 07:41:30;;;;;;;19.03;12.70;;;20.80;99.90;;;;;;5004636;28;20510;-52
2023/09/11 07:43:57;;;;;;;24.27;11.67;;;21.00;99.90;;;;;;5011983;28;21017;-53
2023/09/11 07:46:25;;;;;;;13.63;10.40;;;21.10;99.90;;;;;;5013242;28;20538;-53
2023/09/11 07:48:52;;;;;;;12.60;11.00;;;21.20;99.90;;;;;;5004507;28;20491;-52
2023/09/11 07:51:18;;;;;;;17.20;11.43;;;21.40;99.90;;;;;;5010417;28;20574;-52
2023/09/11 07:53:45;;;;;;;17.13;11.60;;;21.50;99.90;;;;;;5017646;28;20510;-54
2023/09/11 07:56:12;;;;;;;13.33;11.90;;;21.70;99.90;;;;;;5012213;28;20551;-53
2023/09/11 07:58:39;;;;;;;19.07;11.47;;;21.80;1.40;;;;;;5011692;28;20547;-54
2023/09/11 08:01:06;;;;;;;20.43;10.73;;;22.00;99.90;;;;;;5012661;28;20562;-53
2023/09/11 08:03:35;;;;;;;18.33;10.60;;;22.10;99.90;;;;;;5013081;28;20487;-53
2023/09/11 08:06:03;;;;;;;11.70;10.13;;;22.20;99.90;;;;;;5014995;28;20973;-53
2023/09/11 08:08:29;;;;;;;15.03;11.40;;;22.30;99.90;;;;;;5010793;28;20494;-54
2023/09/11 08:10:56;;;;;;;14.40;11.00;;;22.50;99.90;;;;;;5013913;28;20463;-54
2023/09/11 08:13:22;;;;;;;13.13;10.73;;;22.70;99.90;;;;;;5012546;28;21083;-53
2023/09/11 08:15:49;;;;;;;16.03;11.10;;;22.80;99.90;;;;;;5008358;28;20460;-53
2023/09/11 08:18:15;;;;;;;20.53;10.30;;;23.00;99.90;;;;;;5013861;28;20545;-53
2023/09/11 08:20:45;;;;;;;12.33;10.37;;;23.10;99.90;;;;;;5012183;28;20507;-53
2023/09/11 08:23:11;;;;;;;19.73;10.40;;;23.30;99.90;;;;;;5013256;28;20459;-52
2023/09/11 08:25:38;;;;;;;9.70;7.60;;;23.40;99.90;;;;;;5011311;28;21199;-52
2023/09/11 08:28:05;;;;;;;12.83;8.80;;;23.50;27.80;;;;;;5012190;28;20543;-53
2023/09/11 08:30:31;;;;;;;13.37;8.63;;;23.60;73.20;;;;;;5006517;28;20905;-53
2023/09/11 08:32:58;;;;;;;21.03;9.10;;;23.80;88.20;;;;;;5012980;28;20503;-52
2023/09/11 08:35:25;;;;;;;10.57;9.47;;;24.00;73.50;;;;;;5012965;28;20495;-52
2023/09/11 08:37:52;;;;;;;14.43;8.10;;;24.10;79.40;;;;;;5007144;28;20502;-54
2023/09/11 08:40:21;;;;;;;9.13;7.10;;;24.30;99.90;;;;;;5011474;28;20566;-53
2023/09/11 08:42:47;;;;;;;7.90;7.10;;;24.40;99.90;;;;;;5011047;28;20546;-52
2023/09/11 08:45:14;;;;;;;15.30;7.33;;;24.60;99.90;;;;;;5002747;28;20536;-52
2023/09/11 08:47:42;;;;;;;8.27;7.40;;;24.80;99.90;;;;;;5010163;28;20575;-53
2023/09/11 08:50:11;;;;;;;20.53;8.77;;;24.90;99.90;;;;;;5009349;28;20524;-52
2023/09/11 08:52:40;;;;;;;8.57;7.67;;;25.00;99.90;;;;;;5011867;28;20523;-54
2023/09/11 08:55:10;;;;;;;9.27;7.67;;;25.40;99.90;;;;;;5006958;28;20475;-52
2023/09/11 08:57:39;;;;;;;10.77;7.20;;;25.70;99.90;;;;;;5006381;28;20471;-53
2023/09/11 09:00:11;;;;;;;7.63;6.93;;;25.80;99.90;;;;;;5007557;28;20589;-54
2023/09/11 09:02:38;;;;;;;10.17;7.40;;;26.10;99.90;;;;;;5014007;28;20827;-53
2023/09/11 09:05:06;;;;;;;10.93;7.60;;;26.20;99.90;;;;;;5013593;28;20547;-53
2023/09/11 09:07:34;;;;;;;7.90;7.10;;;26.30;99.90;;;;;;5006980;28;20460;-55
2023/09/11 09:10:02;;;;;;;17.43;7.77;;;26.30;99.90;;;;;;5005725;28;20552;-54
2023/09/11 09:12:30;;;;;;;8.53;7.70;;;26.40;99.90;;;;;;4999535;28;20452;-53
2023/09/11 09:14:58;;;;;;;15.13;7.73;;;26.50;99.90;;;;;;5011654;28;20494;-52
2023/09/11 09:17:24;;;;;;;18.47;7.30;;;26.60;99.90;;;;;;5002715;28;20491;-52
2023/09/11 09:19:51;;;;;;;9.70;8.13;;;26.60;99.90;;;;;;5011648;28;20539;-52
2023/09/11 09:22:18;;;;;;;11.70;8.67;;;26.60;99.90;;;;;;5004049;28;20558;-52
2023/09/11 09:24:50;;;;;;;18.13;7.60;;;26.60;1.40;;;;;;4997291;28;20488;-51
2023/09/11 09:27:16;;;;;;;13.10;7.30;;;26.70;99.90;;;;;;5011863;28;20495;-53
2023/09/11 09:29:44;;;;;;;11.67;8.20;;;26.90;99.90;;;;;;5003174;28;20921;-52
2023/09/11 09:32:11;;;;;;;20.40;7.70;;;27.10;99.90;;;;;;5014971;28;20842;-52
2023/09/11 09:34:42;;;;;;;21.80;6.53;;;27.20;99.90;;;;;;5011183;28;20519;-53
2023/09/11 09:37:16;;;;;;;26.60;7.47;;;27.40;99.90;;;;;;5004761;28;20518;-52
2023/09/11 09:39:45;;;;;;;16.20;6.90;;;27.40;99.90;;;;;;5003174;28;20460;-51
2023/09/11 09:42:12;;;;;;;10.73;6.90;;;27.60;99.90;;;;;;5004058;28;20460;-52
2023/09/11 09:44:40;;;;;;;9.60;6.10;;;27.60;99.90;;;;;;5012063;28;20538;-52
2023/09/11 09:47:10;;;;;;;7.20;6.40;;;27.70;99.90;;;;;;5009165;28;20804;-52
2023/09/11 09:49:45;;;;;;;13.67;6.87;;;27.80;99.90;;;;;;5001714;28;20999;-52
2023/09/11 09:52:13;;;;;;;11.10;6.30;;;27.90;99.90;;;;;;4999516;28;20467;-52
2023/09/11 09:54:49;;;;;;;13.00;7.03;;;27.90;99.90;;;;;;5012170;28;20577;-52
2023/09/11 09:57:17;;;;;;;6.67;6.10;;;27.90;99.90;;;;;;4998147;28;20857;-53
2023/09/11 09:59:49;;;;;;;10.63;6.10;;;28.10;99.90;;;;;;5010967;28;20459;-53
2023/09/11 10:02:25;;;;;;;18.03;6.07;;;28.30;99.90;;;;;;5005677;28;20455;-53
2023/09/11 10:04:52;;;;;;;8.87;5.77;;;28.50;99.90;;;;;;5004830;28;20586;-52
2023/09/11 10:07:36;;;;;;;12.30;5.83;;;28.50;99.90;;;;;;5007679;28;20560;-53
2023/09/11 10:10:21;;;;;;;10.63;6.43;;;28.90;99.90;;;;;;5009917;28;20499;-52
2023/09/11 10:12:53;;;;;;;8.97;6.07;;;29.80;99.90;;;;;;5004998;28;20490;-52
2023/09/11 10:15:20;;;;;;;13.10;6.23;;;30.60;99.90;;;;;;5008823;28;20554;-52
2023/09/11 10:17:53;;;;;;;9.37;5.73;;;30.60;99.90;;;;;;5015510;28;20502;-53
2023/09/11 10:20:19;;;;;;;16.23;6.87;;;30.80;99.90;;;;;;5010249;28;20589;-52
2023/09/11 10:22:46;;;;;;;11.50;6.17;;;31.20;99.90;;;;;;5007958;28;21030;-52
2023/09/11 10:25:12;;;;;;;23.87;6.10;;;32.00;99.90;;;;;;5010938;28;20538;-53
2023/09/11 10:27:41;;;;;;;14.37;5.77;;;32.40;99.90;;;;;;5007418;28;20572;-53
2023/09/11 10:30:12;;;;;;;7.83;5.20;;;32.90;99.90;;;;;;5005663;28;20613;-52
2023/09/11 10:32:45;;;;;;;6.57;5.53;;;33.10;99.90;;;;;;5007149;28;20550;-52
2023/09/11 10:35:13;;;;;;;7.07;6.20;;;33.50;99.90;;;;;;5003764;28;20460;-54
2023/09/11 10:37:41;;;;;;;9.30;5.63;;;33.80;99.90;;;;;;5008394;28;20899;-53
2023/09/11 10:40:10;;;;;;;7.60;5.90;;;33.70;99.90;;;;;;5006143;28;20525;-53
2023/09/11 10:42:37;;;;;;;6.63;6.00;;;32.70;99.90;;;;;;5008518;28;20545;-52
2023/09/11 10:45:04;;;;;;;11.27;6.90;;;31.60;99.90;;;;;;5004013;28;20488;-53
2023/09/11 10:47:30;;;;;;;6.47;5.83;;;32.70;99.90;;;;;;5004449;28;20810;-52
2023/09/11 10:49:57;;;;;;;14.80;5.80;;;33.30;99.90;;;;;;5010829;28;20546;-53
2023/09/11 10:52:26;;;;;;;13.40;5.50;;;33.10;99.90;;;;;;5009483;28;21060;-53
2023/09/11 10:54:52;;;;;;;11.37;5.57;;;32.60;99.90;;;;;;5000350;28;20584;-52
2023/09/11 10:57:19;;;;;;;8.90;5.30;;;32.50;99.90;;;;;;5007296;28;20531;-53
2023/09/11 10:59:45;;;;;;;7.10;5.27;;;33.10;99.90;;;;;;5006304;28;20518;-53
2023/09/11 11:02:12;;;;;;;8.93;5.10;;;33.50;99.90;;;;;;5012795;28;20476;-52
2023/09/11 11:04:38;;;;;;;13.77;5.70;;;33.50;99.90;;;;;;5003253;28;20880;-52
2023/09/11 11:07:05;;;;;;;11.23;6.23;;;33.40;99.90;;;;;;5011091;28;20491;-52
2023/09/11 11:09:34;;;;;;;10.63;5.70;;;33.20;99.90;;;;;;5010397;28;20527;-53
2023/09/11 11:12:04;;;;;;;8.00;5.77;;;33.60;99.90;;;;;;5008798;28;20514;-52
2023/09/11 11:14:31;;;;;;;9.80;5.10;;;33.10;99.90;;;;;;4999838;28;20480;-52
2023/09/11 11:17:00;;;;;;;9.60;5.37;;;32.60;99.90;;;;;;5009533;28;20949;-52
2023/09/11 11:19:28;;;;;;;12.57;5.50;;;32.40;99.90;;;;;;4992440;28;20444;-53
2023/09/11 11:21:55;;;;;;;12.63;5.80;;;32.00;99.90;;;;;;4998684;28;20541;-53
2023/09/11 11:24:24;;;;;;;8.20;5.13;;;31.50;99.90;;;;;;5018334;28;20458;-51
2023/09/11 11:26:55;;;;;;;17.40;5.40;;;30.80;99.90;;;;;;4997862;28;20555;-54
2023/09/11 11:29:22;;;;;;;7.37;4.97;;;30.20;99.90;;;;;;5012690;28;20468;-51
2023/09/11 11:31:53;;;;;;;9.30;4.80;;;29.80;99.90;;;;;;5011903;28;20577;-53
2023/09/11 11:34:22;;;;;;;10.77;6.27;;;29.60;99.90;;;;;;5009360;28;20491;-51
2023/09/11 11:36:50;;;;;;;10.93;5.00;;;29.60;99.90;;;;;;5004739;28;20553;-52
2023/09/11 11:39:17;;;;;;;16.40;5.13;;;29.50;99.90;;;;;;5008821;28;20491;-51
2023/09/11 11:41:44;;;;;;;13.03;5.63;;;29.50;99.90;;;;;;5008486;28;20559;-52
2023/09/11 11:44:12;;;;;;;17.30;5.90;;;29.50;99.90;;;;;;5000883;28;20487;-53
2023/09/11 11:46:40;;;;;;;8.63;5.07;;;29.60;99.90;;;;;;5005097;28;20551;-52
2023/09/11 11:49:06;;;;;;;7.37;5.50;;;29.60;99.90;;;;;;5000782;28;20578;-53
2023/09/11 11:51:33;;;;;;;14.00;5.00;;;29.70;99.90;;;;;;5002731;28;20541;-52
2023/09/11 11:54:00;;;;;;;6.50;4.77;;;29.80;99.90;;;;;;5001052;28;20542;-52
2023/09/11 11:56:27;;;;;;;6.43;4.40;;;29.90;99.90;;;;;;5002223;28;20583;-52
2023/09/11 11:58:57;;;;;;;13.83;5.20;;;29.80;99.90;;;;;;5009751;28;20468;-53
2023/09/11 12:01:25;;;;;;;14.03;4.60;;;29.80;99.90;;;;;;5008176;28;20522;-51
2023/09/11 12:03:52;;;;;;;7.93;4.80;;;29.90;99.90;;;;;;5006621;28;20489;-53
2023/09/11 12:06:20;;;;;;;9.50;5.50;;;30.00;99.90;;;;;;5005952;28;20962;-52
2023/09/11 12:08:47;;;;;;;10.23;5.17;;;30.10;99.90;;;;;;5014816;28;20552;-51
2023/09/11 12:11:14;;;;;;;9.57;4.40;;;30.70;99.90;;;;;;5012701;28;20890;-53
2023/09/11 12:13:40;;;;;;;17.40;4.70;;;30.70;99.90;;;;;;5012796;28;20576;-53
2023/09/11 12:16:07;;;;;;;17.03;5.50;;;31.00;99.90;;;;;;5013143;28;20546;-52
2023/09/11 12:18:37;;;;;;;10.00;5.43;;;31.10;99.90;;;;;;5007293;28;21525;-52
2023/09/11 12:21:06;;;;;;;10.63;4.90;;;31.00;99.90;;;;;;5007407;28;20475;-53
2023/09/11 12:23:32;;;;;;;21.90;5.27;;;31.00;99.90;;;;;;5012460;28;20490;-53
2023/09/11 12:26:00;;;;;;;17.97;5.57;;;31.40;99.90;;;;;;5008745;28;20566;-53
2023/09/11 12:28:27;;;;;;;17.23;4.93;;;31.60;99.90;;;;;;5013361;28;20470;-51
2023/09/11 12:30:55;;;;;;;13.27;4.90;;;31.70;99.90;;;;;;5018398;28;20522;-52
2023/09/11 12:33:25;;;;;;;13.67;5.60;;;32.10;99.90;;;;;;5014767;28;20487;-52
2023/09/11 12:35:55;;;;;;;9.20;4.70;;;32.10;99.90;;;;;;5006370;28;20503;-53